createdAt,value
2018-04-19T00:01:16.382Z,16.11
2018-04-19T00:03:43.877Z,16.17
2018-04-19T00:06:11.453Z,15.96
2018-04-19T00:08:38.941Z,15.81
2018-04-19T00:11:06.450Z,15.79
2018-04-19T00:13:33.929Z,15.75
2018-04-19T00:16:01.434Z,15.77
2018-04-19T00:18:28.912Z,15.74
2018-04-19T00:20:56.411Z,15.66
2018-04-19T00:23:23.899Z,15.63
2018-04-19T00:25:51.429Z,15.68
2018-04-19T00:28:18.936Z,15.64
2018-04-19T00:30:46.434Z,15.62
2018-04-19T00:33:13.941Z,15.74
2018-04-19T00:35:41.571Z,15.68
2018-04-19T00:38:09.075Z,15.58
2018-04-19T00:40:36.583Z,15.60
2018-04-19T00:43:04.066Z,15.53
2018-04-19T00:45:31.582Z,15.53
2018-04-19T00:47:59.096Z,15.58
2018-04-19T00:50:26.581Z,15.45
2018-04-19T00:53:05.859Z,15.40
2018-04-19T00:55:33.360Z,15.28
2018-04-19T00:58:00.835Z,15.29
2018-04-19T01:00:28.321Z,15.35
2018-04-19T01:02:55.915Z,15.33
2018-04-19T01:05:23.411Z,15.53
2018-04-19T01:07:50.999Z,15.50
2018-04-19T01:10:18.517Z,15.56
2018-04-19T01:12:46.005Z,15.53
2018-04-19T01:15:13.508Z,15.58
2018-04-19T01:17:41.185Z,15.53
2018-04-19T01:20:08.684Z,15.38
2018-04-19T01:22:36.176Z,15.46
2018-04-19T01:25:03.672Z,15.30
2018-04-19T01:27:31.214Z,15.18
2018-04-19T01:29:58.712Z,15.24
2018-04-19T01:32:26.227Z,15.31
2018-04-19T01:34:53.715Z,15.18
2018-04-19T01:37:21.366Z,15.22
2018-04-19T01:39:48.878Z,15.24
2018-04-19T01:42:17.102Z,15.08
2018-04-19T01:44:44.633Z,15.05
2018-04-19T01:47:12.140Z,15.06
2018-04-19T01:49:39.643Z,14.98
2018-04-19T01:52:07.133Z,14.89
2018-04-19T01:54:34.610Z,14.78
2018-04-19T01:57:02.105Z,14.58
2018-04-19T01:59:29.617Z,14.52
2018-04-19T02:01:57.109Z,14.61
2018-04-19T02:04:24.594Z,14.55
2018-04-19T02:06:52.103Z,14.54
2018-04-19T02:09:19.652Z,14.44
2018-04-19T02:11:47.212Z,14.43
2018-04-19T02:14:14.747Z,14.40
2018-04-19T02:16:42.240Z,14.25
2018-04-19T02:19:09.823Z,14.14
2018-04-19T02:21:37.465Z,14.15
2018-04-19T02:24:04.981Z,14.11
2018-04-19T02:26:32.511Z,14.07
2018-04-19T02:29:00.052Z,13.90
2018-04-19T02:31:27.529Z,13.90
2018-04-19T02:33:55.039Z,13.91
2018-04-19T02:36:22.551Z,13.75
2018-04-19T02:38:50.075Z,13.86
2018-04-19T02:41:17.574Z,14.06
2018-04-19T02:43:45.246Z,14.14
2018-04-19T02:46:12.751Z,13.98
2018-04-19T02:48:40.267Z,14.06
2018-04-19T02:51:07.909Z,14.19
2018-04-19T02:53:35.410Z,14.18
2018-04-19T02:56:04.017Z,13.94
2018-04-19T02:58:31.532Z,13.87
2018-04-19T03:00:59.059Z,13.86
2018-04-19T03:03:26.550Z,13.59
2018-04-19T03:05:54.038Z,13.56
2018-04-19T03:08:21.530Z,13.38
2018-04-19T03:10:49.037Z,13.34
2018-04-19T03:13:16.773Z,13.25
2018-04-19T03:15:44.275Z,13.12
2018-04-19T03:18:11.796Z,13.09
2018-04-19T03:20:39.433Z,13.16
2018-04-19T03:23:06.936Z,13.08
2018-04-19T03:25:35.415Z,13.05
2018-04-19T03:28:03.153Z,13.03
2018-04-19T03:30:30.691Z,12.95
2018-04-19T03:32:58.293Z,12.89
2018-04-19T03:35:25.828Z,12.89
2018-04-19T03:37:53.356Z,12.85
2018-04-19T03:40:20.856Z,12.79
2018-04-19T03:42:48.360Z,12.85
2018-04-19T03:45:15.858Z,12.98
2018-04-19T03:47:43.365Z,13.18
2018-04-19T03:50:10.857Z,13.31
2018-04-19T03:52:38.511Z,13.22
2018-04-19T03:55:05.998Z,13.21
2018-04-19T03:57:33.537Z,13.21
2018-04-19T04:00:01.113Z,13.54
2018-04-19T04:02:28.629Z,13.48
2018-04-19T04:04:56.150Z,13.58
2018-04-19T04:07:23.738Z,13.38
2018-04-19T04:12:25.422Z,13.32
2018-04-19T04:14:52.914Z,13.13
2018-04-19T04:17:32.348Z,12.68
2018-04-19T04:20:09.593Z,12.28
2018-04-19T04:22:48.969Z,12.21
2018-04-19T04:25:16.479Z,12.10
2018-04-19T04:27:44.005Z,11.94
2018-04-19T04:30:11.632Z,11.86
2018-04-19T04:32:39.212Z,11.74
2018-04-19T04:35:06.721Z,11.64
2018-04-19T04:37:34.211Z,12.11
2018-04-19T04:40:01.739Z,12.17
2018-04-19T04:42:29.260Z,12.54
2018-04-19T04:44:56.759Z,12.62
2018-04-19T04:47:24.234Z,13.02
2018-04-19T04:49:51.752Z,13.31
2018-04-19T04:52:19.231Z,13.32
2018-04-19T04:54:46.788Z,13.51
2018-04-19T04:57:14.293Z,13.62
2018-04-19T04:59:41.805Z,13.89
2018-04-19T05:02:09.357Z,14.12
2018-04-19T05:04:36.831Z,14.37
2018-04-19T05:07:04.357Z,14.44
2018-04-19T05:09:31.852Z,14.87
2018-04-19T05:11:59.383Z,15.28
2018-04-19T05:14:26.902Z,15.86
2018-04-19T05:16:54.395Z,15.66
2018-04-19T05:19:21.874Z,15.16
2018-04-19T05:21:49.368Z,15.70
2018-04-19T05:24:17.347Z,15.69
2018-04-19T05:26:44.860Z,15.74
2018-04-19T05:29:12.370Z,15.75
2018-04-19T05:31:39.891Z,16.30
2018-04-19T05:34:07.358Z,16.03
2018-04-19T05:36:34.857Z,16.24
2018-04-19T05:39:02.342Z,16.28
2018-04-19T05:41:29.837Z,16.40
2018-04-19T05:43:57.338Z,16.64
2018-04-19T05:46:24.828Z,16.49
2018-04-19T05:48:52.306Z,16.38
2018-04-19T05:51:19.828Z,16.46
2018-04-19T05:53:47.391Z,16.18
2018-04-19T05:56:14.931Z,16.47
2018-04-19T05:58:42.436Z,16.41
2018-04-19T06:01:09.974Z,16.39
2018-04-19T06:03:37.509Z,16.44
2018-04-19T06:06:05.581Z,16.22
2018-04-19T06:08:33.084Z,16.16
2018-04-19T06:11:00.615Z,16.07
2018-04-19T06:13:28.102Z,15.99
2018-04-19T06:15:55.595Z,16.34
2018-04-19T06:18:23.095Z,16.95
2018-04-19T06:20:50.595Z,17.64
2018-04-19T06:23:18.211Z,17.67
2018-04-19T06:25:45.815Z,18.33
2018-04-19T06:28:13.374Z,18.14
2018-04-19T06:30:40.896Z,17.90
2018-04-19T06:33:08.401Z,18.11
2018-04-19T06:35:36.960Z,18.26
2018-04-19T06:38:04.467Z,18.25
2018-04-19T06:40:31.961Z,18.41
2018-04-19T06:42:59.513Z,18.52
2018-04-19T06:45:26.983Z,18.43
2018-04-19T06:47:54.485Z,18.87
2018-04-19T06:50:22.050Z,19.45
2018-04-19T06:52:49.723Z,19.64
2018-04-19T06:55:17.220Z,20.13
2018-04-19T06:57:44.734Z,20.35
2018-04-19T07:00:12.224Z,19.80
2018-04-19T07:02:39.732Z,20.18
2018-04-19T07:05:07.238Z,20.48
2018-04-19T07:07:34.726Z,20.74
2018-04-19T07:10:02.232Z,20.62
2018-04-19T07:12:29.729Z,21.13
2018-04-19T07:14:57.221Z,21.21
2018-04-19T07:17:24.715Z,21.10
2018-04-19T07:19:52.207Z,21.49
2018-04-19T07:22:19.758Z,21.62
2018-04-19T07:24:47.249Z,21.75
2018-04-19T07:27:14.760Z,21.83
2018-04-19T07:29:42.239Z,21.89
2018-04-19T07:32:09.745Z,21.97
2018-04-19T07:34:37.251Z,21.93
2018-04-19T07:37:04.765Z,21.83
2018-04-19T07:39:32.354Z,22.18
2018-04-19T07:41:59.854Z,22.29
2018-04-19T07:44:27.340Z,22.61
2018-04-19T07:46:54.835Z,22.28
2018-04-19T07:49:22.366Z,22.04
2018-04-19T07:51:49.850Z,22.29
2018-04-19T07:54:17.335Z,22.23
2018-04-19T07:56:44.809Z,22.51
2018-04-19T07:59:12.303Z,22.40
2018-04-19T08:01:39.808Z,22.29
2018-04-19T08:04:07.297Z,22.51
2018-04-19T08:06:34.936Z,22.66
2018-04-19T08:09:02.449Z,22.72
2018-04-19T08:11:30.036Z,22.83
2018-04-19T08:13:57.640Z,23.08
2018-04-19T08:16:25.132Z,22.95
2018-04-19T08:18:52.617Z,23.37
2018-04-19T08:21:20.134Z,23.55
2018-04-19T08:23:47.648Z,23.65
2018-04-19T08:26:15.216Z,23.39
2018-04-19T08:28:42.718Z,23.35
2018-04-19T08:31:10.218Z,23.68
2018-04-19T08:33:37.714Z,23.80
2018-04-19T08:36:05.341Z,24.02
2018-04-19T08:38:32.838Z,24.11
2018-04-19T08:41:00.301Z,24.03
2018-04-19T08:43:27.791Z,23.95
2018-04-19T08:45:55.267Z,24.06
2018-04-19T08:48:22.767Z,24.20
2018-04-19T08:50:50.257Z,24.35
2018-04-19T08:53:17.753Z,24.37
2018-04-19T08:55:45.239Z,24.08
2018-04-19T08:58:12.807Z,24.45
2018-04-19T09:00:40.275Z,24.59
2018-04-19T09:03:07.771Z,24.68
2018-04-19T09:05:35.347Z,24.70
2018-04-19T09:08:02.843Z,24.93
2018-04-19T09:10:30.325Z,24.81
2018-04-19T09:12:57.802Z,24.64
2018-04-19T09:15:25.294Z,24.91
2018-04-19T09:17:52.767Z,24.74
2018-04-19T09:20:20.261Z,25.18
2018-04-19T09:22:47.917Z,25.04
2018-04-19T09:25:15.441Z,25.16
2018-04-19T09:27:42.914Z,25.59
2018-04-19T09:30:10.411Z,25.42
2018-04-19T09:32:37.914Z,25.60
2018-04-19T09:35:05.458Z,25.72
2018-04-19T09:37:32.928Z,25.83
2018-04-19T09:40:00.423Z,25.98
2018-04-19T09:42:27.916Z,25.71
2018-04-19T09:44:55.382Z,25.90
2018-04-19T09:47:22.914Z,26.06
2018-04-19T09:49:50.415Z,26.38
2018-04-19T09:52:17.918Z,26.45
2018-04-19T09:54:45.414Z,26.31
2018-04-19T09:57:12.897Z,25.99
2018-04-19T09:59:40.399Z,26.35
2018-04-19T10:02:07.972Z,26.40
2018-04-19T10:04:35.470Z,26.71
2018-04-19T10:07:02.969Z,26.66
2018-04-19T10:09:30.473Z,26.52
2018-04-19T10:11:58.006Z,26.81
2018-04-19T10:14:25.500Z,26.91
2018-04-19T10:16:53.024Z,27.00
2018-04-19T10:19:20.518Z,26.67
2018-04-19T10:21:48.052Z,27.02
2018-04-19T10:24:15.538Z,26.80
2018-04-19T10:26:43.031Z,27.22
2018-04-19T10:29:10.515Z,27.18
2018-04-19T10:31:37.999Z,27.00
2018-04-19T10:34:05.463Z,27.23
2018-04-19T10:36:32.930Z,27.29
2018-04-19T10:39:00.418Z,27.58
2018-04-19T10:41:27.889Z,27.59
2018-04-19T10:43:55.367Z,27.81
2018-04-19T10:46:22.843Z,27.61
2018-04-19T10:48:50.364Z,27.83
2018-04-19T10:51:17.853Z,27.88
2018-04-19T10:53:45.435Z,27.79
2018-04-19T10:56:12.921Z,27.99
2018-04-19T10:58:40.503Z,28.00
2018-04-19T11:01:07.987Z,27.83
2018-04-19T11:03:35.474Z,27.60
2018-04-19T11:06:03.078Z,28.15
2018-04-19T11:08:30.724Z,28.48
2018-04-19T11:10:58.201Z,28.41
2018-04-19T11:13:25.673Z,28.76
2018-04-19T11:15:53.156Z,28.81
2018-04-19T11:18:20.668Z,28.62
2018-04-19T11:20:48.397Z,28.77
2018-04-19T11:23:15.840Z,29.20
2018-04-19T11:25:43.315Z,29.28
2018-04-19T11:28:10.847Z,29.94
2018-04-19T11:30:38.481Z,30.56
2018-04-19T11:33:07.047Z,31.10
2018-04-19T11:35:34.553Z,31.78
2018-04-19T11:38:02.072Z,32.97
2018-04-19T11:40:29.674Z,34.37
2018-04-19T11:42:57.268Z,35.06
2018-04-19T11:45:24.760Z,35.68
2018-04-19T11:47:52.256Z,36.99
2018-04-19T11:50:19.763Z,36.70
2018-04-19T11:52:47.460Z,37.67
2018-04-19T11:55:15.012Z,37.98
2018-04-19T11:57:42.473Z,38.35
2018-04-19T12:00:09.959Z,38.26
2018-04-19T12:02:37.541Z,39.43
2018-04-19T12:05:05.030Z,39.22
2018-04-19T12:07:32.537Z,40.49
2018-04-19T12:10:00.025Z,40.40
2018-04-19T12:12:27.509Z,41.02
2018-04-19T12:14:54.969Z,40.82
2018-04-19T12:17:22.451Z,40.73
2018-04-19T12:19:49.950Z,41.73
2018-04-19T12:22:17.438Z,42.57
2018-04-19T12:24:44.962Z,42.91
2018-04-19T12:27:12.469Z,42.16
2018-04-19T12:29:39.957Z,43.14
2018-04-19T12:32:07.435Z,42.03
2018-04-19T12:34:34.938Z,42.27
2018-04-19T12:37:02.426Z,41.84
2018-04-19T12:39:29.888Z,42.84
2018-04-19T12:41:57.491Z,43.44
2018-04-19T12:44:24.965Z,44.22
2018-04-19T12:46:52.452Z,45.01
2018-04-19T12:49:19.959Z,45.33
2018-04-19T12:51:47.457Z,43.54
2018-04-19T12:54:14.943Z,44.88
2018-04-19T12:56:42.449Z,43.60
2018-04-19T12:59:10.053Z,43.51
2018-04-19T13:01:37.559Z,45.70
2018-04-19T13:04:05.054Z,44.28
2018-04-19T13:06:32.623Z,45.75
2018-04-19T13:09:00.108Z,45.78
2018-04-19T13:11:27.613Z,45.88
2018-04-19T13:13:55.071Z,47.30
2018-04-19T13:16:22.556Z,47.00
2018-04-19T13:18:50.033Z,48.51
2018-04-19T13:21:18.258Z,49.01
2018-04-19T13:23:45.730Z,48.06
2018-04-19T13:26:13.216Z,46.49
2018-04-19T13:28:40.857Z,47.64
2018-04-19T13:31:08.341Z,47.44
2018-04-19T13:33:35.828Z,46.82
2018-04-19T13:36:03.540Z,47.42
2018-04-19T13:38:31.008Z,47.01
2018-04-19T13:40:58.535Z,46.52
2018-04-19T13:43:26.011Z,46.82
2018-04-19T13:45:53.502Z,46.73
2018-04-19T13:48:20.973Z,47.90
2018-04-19T13:50:48.460Z,47.69
2018-04-19T13:53:15.937Z,47.25
2018-04-19T13:55:43.427Z,49.14
2018-04-19T13:58:10.903Z,46.75
2018-04-19T14:00:38.383Z,47.69
2018-04-19T14:03:05.938Z,46.48
2018-04-19T14:05:33.469Z,46.66
2018-04-19T14:08:00.933Z,47.58
2018-04-19T14:10:28.423Z,47.76
2018-04-19T14:12:55.900Z,47.52
2018-04-19T14:15:23.504Z,48.90
2018-04-19T14:17:51.109Z,48.03
2018-04-19T14:20:18.581Z,48.60
2018-04-19T14:22:46.092Z,46.79
2018-04-19T14:25:13.697Z,46.40
2018-04-19T14:27:41.223Z,45.80
2018-04-19T14:30:08.711Z,44.61
2018-04-19T14:32:36.194Z,44.47
2018-04-19T14:35:03.751Z,46.61
2018-04-19T14:37:42.365Z,47.48
2018-04-19T14:40:11.316Z,45.63
2018-04-19T14:42:40.757Z,45.00
2018-04-19T14:45:15.697Z,46.83
2018-04-19T14:47:55.114Z,47.42
2018-04-19T14:50:37.570Z,48.15
2018-04-19T14:53:06.977Z,47.06
2018-04-19T14:58:41.383Z,46.16
2018-04-19T15:01:08.940Z,47.72
2018-04-19T15:03:36.479Z,46.31
2018-04-19T15:06:04.013Z,45.19
2018-04-19T15:08:31.489Z,46.16
2018-04-19T15:10:58.953Z,46.19
2018-04-19T15:13:26.468Z,45.85
2018-04-19T15:15:53.947Z,46.05
2018-04-19T15:18:21.415Z,45.14
2018-04-19T15:20:48.878Z,46.96
2018-04-19T15:23:16.388Z,45.47
2018-04-19T15:25:43.893Z,44.83
2018-04-19T15:28:11.381Z,45.06
2018-04-19T15:30:38.904Z,45.21
2018-04-19T15:33:06.364Z,44.98
2018-04-19T15:35:33.872Z,45.57
2018-04-19T15:38:01.388Z,43.94
2018-04-19T15:40:28.880Z,43.95
2018-04-19T15:42:56.366Z,45.32
2018-04-19T15:45:23.869Z,44.98
2018-04-19T15:47:51.393Z,43.65
2018-04-19T15:50:18.837Z,43.13
2018-04-19T15:52:46.341Z,43.38
2018-04-19T15:55:13.818Z,42.39
2018-04-19T15:57:41.289Z,43.43
2018-04-19T16:00:08.779Z,44.33
2018-04-19T16:02:36.283Z,43.93
2018-04-19T16:05:03.784Z,42.48
2018-04-19T16:07:31.281Z,43.21
2018-04-19T16:09:58.767Z,43.45
2018-04-19T16:12:26.238Z,41.80
2018-04-19T16:14:53.770Z,41.51
2018-04-19T16:17:21.243Z,41.43
2018-04-19T16:19:48.787Z,42.87
2018-04-19T16:22:16.652Z,41.53
2018-04-19T16:24:44.300Z,42.18
2018-04-19T16:27:11.777Z,41.03
2018-04-19T16:29:39.311Z,41.24
2018-04-19T16:32:06.802Z,40.28
2018-04-19T16:34:34.289Z,40.63
2018-04-19T16:37:01.782Z,39.63
2018-04-19T16:39:29.448Z,39.31
2018-04-19T16:41:57.067Z,40.60
2018-04-19T16:44:24.524Z,39.28
2018-04-19T16:46:52.033Z,38.02
2018-04-19T16:49:19.544Z,38.80
2018-04-19T16:51:47.028Z,38.67
2018-04-19T16:54:14.517Z,38.36
2018-04-19T16:56:42.009Z,37.90
2018-04-19T16:59:09.574Z,37.45
2018-04-19T17:01:37.148Z,36.21
2018-04-19T17:04:04.638Z,35.75
2018-04-19T17:06:32.111Z,35.57
2018-04-19T17:08:59.590Z,35.40
2018-04-19T17:11:27.146Z,34.84
2018-04-19T17:13:54.738Z,32.74
2018-04-19T17:16:22.231Z,31.67
2018-04-19T17:18:49.711Z,30.89
2018-04-19T17:21:17.238Z,30.05
2018-04-19T17:23:44.749Z,29.80
2018-04-19T17:26:12.237Z,29.08
2018-04-19T17:28:39.741Z,28.74
2018-04-19T17:31:07.239Z,28.10
2018-04-19T17:33:34.775Z,27.64
2018-04-19T17:36:02.276Z,27.58
2018-04-19T17:38:29.770Z,27.25
2018-04-19T17:40:57.256Z,27.08
2018-04-19T17:43:24.759Z,26.74
2018-04-19T17:45:52.448Z,26.53
2018-04-19T17:48:19.961Z,26.20
2018-04-19T17:50:47.485Z,26.12
2018-04-19T17:53:15.022Z,25.86
2018-04-19T17:55:42.553Z,25.73
2018-04-19T17:58:10.020Z,25.58
2018-04-19T18:00:37.560Z,25.25
2018-04-19T18:03:05.632Z,25.04
2018-04-19T18:05:33.110Z,24.85
2018-04-19T18:08:00.601Z,24.61
2018-04-19T18:10:28.128Z,24.44
2018-04-19T18:12:55.637Z,24.34
2018-04-19T18:15:23.245Z,24.05
2018-04-19T18:17:50.736Z,23.88
2018-04-19T18:20:18.303Z,23.73
2018-04-19T18:22:45.801Z,23.48
2018-04-19T18:25:13.366Z,23.30
2018-04-19T18:27:40.831Z,23.12
2018-04-19T18:30:08.313Z,23.04
2018-04-19T18:32:35.829Z,22.88
2018-04-19T18:35:03.581Z,22.81
2018-04-19T18:37:31.071Z,22.84
2018-04-19T18:39:58.558Z,22.83
2018-04-19T18:42:26.068Z,22.86
2018-04-19T18:44:53.540Z,22.76
2018-04-19T18:47:21.155Z,22.83
2018-04-19T18:49:48.690Z,22.65
2018-04-19T18:52:16.687Z,22.52
2018-04-19T18:54:44.425Z,22.50
2018-04-19T18:57:14.746Z,22.39
2018-04-19T18:59:42.287Z,22.33
2018-04-19T19:02:09.802Z,22.17
2018-04-19T19:04:38.152Z,22.06
2018-04-19T19:07:05.743Z,22.05
2018-04-19T19:09:33.827Z,22.05
2018-04-19T19:12:02.202Z,22.12
2018-04-19T19:14:36.206Z,22.06
2018-04-19T19:17:18.427Z,21.91
2018-04-19T19:19:58.068Z,21.69
2018-04-19T19:22:25.547Z,21.67
2018-04-19T19:24:53.092Z,21.57
2018-04-19T19:27:20.701Z,21.70
2018-04-19T19:29:48.208Z,21.56
2018-04-19T19:32:15.830Z,21.47
2018-04-19T19:34:43.367Z,21.48
2018-04-19T19:37:10.994Z,21.73
2018-04-19T19:39:38.556Z,21.61
2018-04-19T19:42:06.107Z,21.69
2018-04-19T19:44:33.594Z,21.80
2018-04-19T19:47:01.086Z,21.65
2018-04-19T19:49:28.562Z,21.49
2018-04-19T19:51:56.173Z,21.35
2018-04-19T19:54:23.679Z,21.07
2018-04-19T19:56:51.240Z,20.94
2018-04-19T19:59:18.781Z,20.80
2018-04-19T20:01:46.305Z,20.73
2018-04-19T20:04:13.791Z,20.68
2018-04-19T20:06:41.266Z,20.62
2018-04-19T20:09:08.869Z,20.59
2018-04-19T20:11:37.405Z,20.66
2018-04-19T20:14:05.135Z,20.65
2018-04-19T20:16:32.750Z,20.50
2018-04-19T20:19:00.467Z,20.46
2018-04-19T20:21:28.094Z,20.44
2018-04-19T20:23:55.687Z,20.51
2018-04-19T20:26:23.202Z,20.35
2018-04-19T20:28:51.079Z,20.36
2018-04-19T20:31:18.696Z,20.37
2018-04-19T20:33:46.337Z,20.43
2018-04-19T20:36:13.905Z,20.41
2018-04-19T20:38:41.626Z,20.20
2018-04-19T20:41:09.159Z,20.35
2018-04-19T20:43:36.685Z,20.29
2018-04-19T20:46:04.234Z,20.29
2018-04-19T20:48:31.779Z,20.43
2018-04-19T20:50:59.270Z,20.33
2018-04-19T20:53:26.773Z,19.92
2018-04-19T20:55:54.263Z,20.11
2018-04-19T20:58:21.804Z,20.01
2018-04-19T21:00:49.309Z,20.06
2018-04-19T21:03:16.826Z,19.75
2018-04-19T21:05:44.380Z,19.83
2018-04-19T21:08:11.896Z,19.80
2018-04-19T21:10:39.407Z,19.54
2018-04-19T21:13:08.977Z,19.49
2018-04-19T21:15:36.748Z,19.32
2018-04-19T21:18:04.661Z,19.40
2018-04-19T21:20:32.379Z,19.54
2018-04-19T21:23:00.291Z,19.57
2018-04-19T21:25:28.272Z,19.45
2018-04-19T21:27:56.167Z,19.31
2018-04-19T21:30:23.655Z,19.53
2018-04-19T21:32:51.157Z,19.51
2018-04-19T21:35:18.652Z,19.35
2018-04-19T21:37:46.155Z,19.43
2018-04-19T21:40:13.677Z,19.44
2018-04-19T21:42:41.244Z,19.45
2018-04-19T21:45:08.738Z,19.25
2018-04-19T21:47:36.256Z,19.00
2018-04-19T21:50:03.779Z,18.87
2018-04-19T21:52:31.261Z,18.94
2018-04-19T21:54:58.752Z,18.69
2018-04-19T21:57:26.240Z,19.03
2018-04-19T21:59:53.765Z,19.02
2018-04-19T22:02:21.283Z,18.90
2018-04-19T22:04:48.786Z,18.67
2018-04-19T22:07:16.250Z,18.83
2018-04-19T22:09:43.745Z,18.54
2018-04-19T22:12:11.254Z,18.60
2018-04-19T22:14:38.763Z,18.59
2018-04-19T22:17:06.303Z,18.36
2018-04-19T22:19:33.790Z,18.75
2018-04-19T22:22:01.277Z,18.58
2018-04-19T22:24:28.753Z,18.57
2018-04-19T22:26:56.312Z,18.26
2018-04-19T22:29:23.799Z,18.44
2018-04-19T22:31:51.282Z,18.50
2018-04-19T22:34:18.781Z,18.48
2018-04-19T22:36:46.274Z,18.65
2018-04-19T22:39:13.762Z,18.64
2018-04-19T22:41:41.254Z,18.83
2018-04-19T22:44:08.763Z,18.42
2018-04-19T22:46:36.289Z,18.17
2018-04-19T22:49:03.797Z,18.15
2018-04-19T22:51:31.274Z,18.19
2018-04-19T22:53:58.761Z,17.85
2018-04-19T22:56:26.262Z,17.81
2018-04-19T22:58:53.746Z,17.59
2018-04-19T23:01:21.230Z,17.63
2018-04-19T23:03:48.750Z,17.70
2018-04-19T23:06:16.274Z,17.60
2018-04-19T23:08:43.799Z,17.70
2018-04-19T23:11:11.308Z,17.32
2018-04-19T23:13:38.812Z,17.77
2018-04-19T23:16:06.308Z,17.70
2018-04-19T23:18:33.793Z,17.98
2018-04-19T23:21:01.282Z,18.23
2018-04-19T23:23:28.791Z,18.35
2018-04-19T23:25:56.321Z,17.95
2018-04-19T23:28:23.811Z,18.00
2018-04-19T23:30:51.297Z,18.40
2018-04-19T23:33:18.781Z,18.17
2018-04-19T23:35:46.271Z,17.84
2018-04-19T23:38:13.752Z,17.63
2018-04-19T23:40:41.236Z,17.49
2018-04-19T23:43:08.707Z,17.65
2018-04-19T23:45:36.181Z,17.45
2018-04-19T23:48:03.678Z,17.53
2018-04-19T23:50:31.167Z,17.37
2018-04-19T23:52:58.654Z,17.16
2018-04-19T23:55:26.163Z,16.95
2018-04-19T23:57:53.649Z,16.75
